PWSweather.com
Personal Weather Stations
Station Observations
WODONGA
Wodonga, WodongaAU 3690

WodongaWodongaAU 3690

Lat: -36.121, Lon: 146.87

Elevation: 541

Station Type: Weather Station

http://www.wodongaweather.net

High Low Average
Temperature 75.6°F24.2°C 52.9°F11.6°C 61.9°F16.6°C
Dew Point 59.1°F15.1°C 50.9°F10.5°C 54.0°F12.2°C
Winds 8.9 mph 14.3 kmh 0.5 mph 0.8 kmh 3.0 mph SSW4.8 kmh SSW
Wind Gusts 11.4 mph18.3 kmh 1.6 mph2.6 kmh 5.0 mph8.0 kmh
Humidity 94% 51% 77%
Pressure 30.04 in1017.3 mb 29.93 in1013.5 mb -
Precipitation 0.04 in1.0 mm - -
Hour Temp Dew Point Humidity Winds Wind Gusts Pressure Precip Precip Rate Daily Precip Total
12:00 AM 57.7°F14.3°C 51.6°F10.9°C 80% 1.4 mph S2.3 kmh S 2.2 mph3.5 kmh 30.01 in1016.3 mb 0.00 in0.0 mm 0.00 in/hr0.0 mm/hr 0.00 in0.0 mm
12:05 AM 57.7°F14.3°C 51.6°F10.9°C 80% 1.9 mph S3.1 kmh S 3.1 mph5.0 kmh 30.02 in1016.6 mb 0.00 in0.0 mm 0.00 in/hr0.0 mm/hr 0.00 in0.0 mm
12:10 AM 57.9°F14.4°C 51.8°F11.0°C 80% 2.2 mph S3.5 kmh S 3.1 mph5.0 kmh 30.02 in1016.6 mb 0.00 in0.0 mm 0.00 in/hr0.0 mm/hr 0.00 in0.0 mm
12:15 AM 57.9°F14.4°C 51.8°F11.0°C 80% 2.4 mph SSE3.9 kmh SSE 3.8 mph6.1 kmh 30.01 in1016.3 mb 0.00 in0.0 mm 0.00 in/hr0.0 mm/hr 0.00 in0.0 mm
12:20 AM 57.9°F14.4°C 51.8°F11.0°C 80% 2.9 mph SE4.7 kmh SE 3.8 mph6.1 kmh 30.01 in1016.3 mb 0.00 in0.0 mm 0.00 in/hr0.0 mm/hr 0.00 in0.0 mm
12:25 AM 57.9°F14.4°C 51.8°F11.0°C 80% 2.5 mph SSE4.0 kmh SSE 3.1 mph5.0 kmh 30.01 in1016.3 mb 0.00 in0.0 mm 0.00 in/hr0.0 mm/hr 0.00 in0.0 mm
12:30 AM 57.7°F14.3°C 51.6°F10.9°C 80% 2.1 mph SSE3.4 kmh SSE 3.1 mph5.0 kmh 30.01 in1016.3 mb 0.00 in0.0 mm 0.00 in/hr0.0 mm/hr 0.00 in0.0 mm
12:35 AM 57.7°F14.3°C 51.6°F10.9°C 80% 2.5 mph SSE4.0 kmh SSE 3.8 mph6.1 kmh 30.01 in1016.3 mb 0.00 in0.0 mm 0.00 in/hr0.0 mm/hr 0.00 in0.0 mm
12:40 AM 57.7°F14.3°C 52.0°F11.1°C 81% 2.6 mph S4.2 kmh S 3.8 mph6.1 kmh 30.02 in1016.6 mb 0.00 in0.0 mm 0.00 in/hr0.0 mm/hr 0.00 in0.0 mm
12:45 AM 57.7°F14.3°C 52.0°F11.1°C 81% 2.4 mph S3.9 kmh S 3.1 mph5.0 kmh 30.02 in1016.6 mb 0.00 in0.0 mm 0.00 in/hr0.0 mm/hr 0.00 in0.0 mm
12:50 AM 57.7°F14.3°C 52.0°F11.1°C 81% 2.5 mph SSE4.0 kmh SSE 3.8 mph6.1 kmh 30.02 in1016.6 mb 0.00 in0.0 mm 0.00 in/hr0.0 mm/hr 0.00 in0.0 mm
12:55 AM 57.7°F14.3°C 52.0°F11.1°C 81% 3.1 mph SE5.0 kmh SE 4.5 mph7.2 kmh 30.01 in1016.3 mb 0.00 in0.0 mm 0.00 in/hr0.0 mm/hr 0.00 in0.0 mm
01:00 AM 57.7°F14.3°C 52.0°F11.1°C 81% 3.3 mph ESE5.3 kmh ESE 4.5 mph7.2 kmh 30.01 in1016.3 mb 0.00 in0.0 mm 0.00 in/hr0.0 mm/hr 0.00 in0.0 mm
01:05 AM 57.7°F14.3°C 52.3°F11.3°C 82% 2.9 mph SE4.7 kmh SE 3.8 mph6.1 kmh 30.01 in1016.3 mb 0.00 in0.0 mm 0.00 in/hr0.0 mm/hr 0.00 in0.0 mm
01:10 AM 57.6°F14.2°C 52.1°F11.2°C 82% 2.7 mph SE4.3 kmh SE 3.1 mph5.0 kmh 30.00 in1015.9 mb 0.00 in0.0 mm 0.00 in/hr0.0 mm/hr 0.00 in0.0 mm
01:15 AM 57.4°F14.1°C 51.9°F11.1°C 82% 2.1 mph SSE3.4 kmh SSE 3.1 mph5.0 kmh 30.00 in1015.9 mb 0.00 in0.0 mm 0.00 in/hr0.0 mm/hr 0.00 in0.0 mm
01:20 AM 57.2°F14.0°C 52.1°F11.2°C 83% 2.6 mph SSE4.2 kmh SSE 6.0 mph9.7 kmh 30.01 in1016.3 mb 0.00 in0.0 mm 0.00 in/hr0.0 mm/hr 0.00 in0.0 mm
01:25 AM 57.2°F14.0°C 52.1°F11.2°C 83% 3.3 mph SE5.3 kmh SE 6.0 mph9.7 kmh 30.01 in1016.3 mb 0.00 in0.0 mm 0.00 in/hr0.0 mm/hr 0.00 in0.0 mm
01:30 AM 57.4°F14.1°C 52.3°F11.3°C 83% 3.4 mph SE5.5 kmh SE 4.5 mph7.2 kmh 30.01 in1016.3 mb 0.00 in0.0 mm 0.00 in/hr0.0 mm/hr 0.00 in0.0 mm
01:35 AM 57.2°F14.0°C 52.1°F11.2°C 83% 4.1 mph SE6.6 kmh SE 4.5 mph7.2 kmh 30.01 in1016.3 mb 0.00 in0.0 mm 0.00 in/hr0.0 mm/hr 0.00 in0.0 mm
01:40 AM 57.4°F14.1°C 52.6°F11.4°C 84% 3.9 mph SE6.3 kmh SE 4.5 mph7.2 kmh 30.01 in1016.3 mb 0.00 in0.0 mm 0.00 in/hr0.0 mm/hr 0.00 in0.0 mm
01:45 AM 57.2°F14.0°C 52.4°F11.3°C 84% 3.5 mph SE5.6 kmh SE 3.8 mph6.1 kmh 30.01 in1016.3 mb 0.00 in0.0 mm 0.00 in/hr0.0 mm/hr 0.00 in0.0 mm
01:50 AM 57.2°F14.0°C 52.7°F11.5°C 85% 2.9 mph SE4.7 kmh SE 3.8 mph6.1 kmh 30.00 in1015.9 mb 0.00 in0.0 mm 0.00 in/hr0.0 mm/hr 0.00 in0.0 mm
01:55 AM 57.0°F13.9°C 52.6°F11.4°C 85% 1.9 mph SSE3.1 kmh SSE 3.1 mph5.0 kmh 30.00 in1015.9 mb 0.00 in0.0 mm 0.00 in/hr0.0 mm/hr 0.00 in0.0 mm
02:00 AM 56.8°F13.8°C 52.7°F11.5°C 86% 1.9 mph SSE3.1 kmh SSE 3.1 mph5.0 kmh 30.00 in1015.9 mb 0.00 in0.0 mm 0.00 in/hr0.0 mm/hr 0.00 in0.0 mm
02:05 AM 56.8°F13.8°C 52.7°F11.5°C 86% 2.4 mph SE3.9 kmh SE 3.1 mph5.0 kmh 29.99 in1015.6 mb 0.00 in0.0 mm 0.00 in/hr0.0 mm/hr 0.00 in0.0 mm
02:10 AM 57.0°F13.9°C 52.9°F11.6°C 86% 3.2 mph SE5.1 kmh SE 5.4 mph8.7 kmh 29.99 in1015.6 mb 0.00 in0.0 mm 0.00 in/hr0.0 mm/hr 0.00 in0.0 mm
02:15 AM 56.8°F13.8°C 52.4°F11.3°C 85% 3.8 mph ESE6.1 kmh ESE 6.0 mph9.7 kmh 29.99 in1015.6 mb 0.00 in0.0 mm 0.00 in/hr0.0 mm/hr 0.00 in0.0 mm
02:20 AM 56.8°F13.8°C 52.4°F11.3°C 85% 3.4 mph ESE5.5 kmh ESE 6.0 mph9.7 kmh 29.99 in1015.6 mb 0.00 in0.0 mm 0.00 in/hr0.0 mm/hr 0.00 in0.0 mm
02:25 AM 56.8°F13.8°C 52.7°F11.5°C 86% 2.8 mph SE4.5 kmh SE 3.8 mph6.1 kmh 29.99 in1015.6 mb 0.00 in0.0 mm 0.00 in/hr0.0 mm/hr 0.00 in0.0 mm
02:30 AM 57.0°F13.9°C 52.9°F11.6°C 86% 2.6 mph SE4.2 kmh SE 3.8 mph6.1 kmh 29.99 in1015.6 mb 0.00 in0.0 mm 0.00 in/hr0.0 mm/hr 0.00 in0.0 mm
02:35 AM 56.8°F13.8°C 52.7°F11.5°C 86% 2.7 mph SE4.3 kmh SE 3.8 mph6.1 kmh 29.99 in1015.6 mb 0.00 in0.0 mm 0.00 in/hr0.0 mm/hr 0.00 in0.0 mm
02:40 AM 56.8°F13.8°C 52.7°F11.5°C 86% 2.6 mph SE4.2 kmh SE 3.1 mph5.0 kmh 29.99 in1015.6 mb 0.00 in0.0 mm 0.00 in/hr0.0 mm/hr 0.00 in0.0 mm
02:45 AM 56.8°F13.8°C 52.7°F11.5°C 86% 1.8 mph S2.9 kmh S 3.1 mph5.0 kmh 30.00 in1015.9 mb 0.00 in0.0 mm 0.00 in/hr0.0 mm/hr 0.00 in0.0 mm
02:50 AM 56.8°F13.8°C 52.7°F11.5°C 86% 1.1 mph SW1.8 kmh SW 1.6 mph2.6 kmh 29.99 in1015.6 mb 0.00 in0.0 mm 0.00 in/hr0.0 mm/hr 0.00 in0.0 mm
02:55 AM 56.8°F13.8°C 52.7°F11.5°C 86% 1.2 mph SSE1.9 kmh SSE 1.6 mph2.6 kmh 29.99 in1015.6 mb 0.00 in0.0 mm 0.00 in/hr0.0 mm/hr 0.00 in0.0 mm
03:00 AM 56.7°F13.7°C 52.5°F11.4°C 86% 1.1 mph SSE1.8 kmh SSE 2.2 mph3.5 kmh 29.99 in1015.6 mb 0.00 in0.0 mm 0.00 in/hr0.0 mm/hr 0.00 in0.0 mm
03:05 AM 56.7°F13.7°C 52.8°F11.6°C 87% 1.1 mph S1.8 kmh S 2.2 mph3.5 kmh 29.99 in1015.6 mb 0.00 in0.0 mm 0.00 in/hr0.0 mm/hr 0.00 in0.0 mm
03:10 AM 56.5°F13.6°C 52.7°F11.5°C 87% 1.3 mph S2.1 kmh S 2.2 mph3.5 kmh 30.00 in1015.9 mb 0.00 in0.0 mm 0.00 in/hr0.0 mm/hr 0.00 in0.0 mm
03:15 AM 56.3°F13.5°C 52.8°F11.6°C 88% 0.9 mph SSW1.4 kmh SSW 1.6 mph2.6 kmh 30.00 in1015.9 mb 0.00 in0.0 mm 0.00 in/hr0.0 mm/hr 0.00 in0.0 mm
03:20 AM 56.1°F13.4°C 52.6°F11.4°C 88% 1.3 mph S2.1 kmh S 2.2 mph3.5 kmh 30.00 in1015.9 mb 0.00 in0.0 mm 0.00 in/hr0.0 mm/hr 0.00 in0.0 mm
03:25 AM 56.1°F13.4°C 52.9°F11.6°C 89% 2.2 mph SE3.5 kmh SE 3.1 mph5.0 kmh 29.99 in1015.6 mb 0.00 in0.0 mm 0.00 in/hr0.0 mm/hr 0.00 in0.0 mm
03:30 AM 56.3°F13.5°C 53.1°F11.7°C 89% 2.4 mph ESE3.9 kmh ESE 3.1 mph5.0 kmh 29.98 in1015.2 mb 0.00 in0.0 mm 0.00 in/hr0.0 mm/hr 0.00 in0.0 mm
03:35 AM 56.3°F13.5°C 52.8°F11.6°C 88% 1.5 mph SSE2.4 kmh SSE 3.1 mph5.0 kmh 30.00 in1015.9 mb 0.00 in0.0 mm 0.00 in/hr0.0 mm/hr 0.00 in0.0 mm
03:40 AM 56.5°F13.6°C 53.0°F11.7°C 88% 0.7 mph SW1.1 kmh SW 2.2 mph3.5 kmh 30.00 in1015.9 mb 0.00 in0.0 mm 0.00 in/hr0.0 mm/hr 0.00 in0.0 mm
03:45 AM 56.3°F13.5°C 52.8°F11.6°C 88% 1.5 mph S2.4 kmh S 2.2 mph3.5 kmh 30.00 in1015.9 mb 0.00 in0.0 mm 0.00 in/hr0.0 mm/hr 0.00 in0.0 mm
03:50 AM 56.5°F13.6°C 53.0°F11.7°C 88% 2.8 mph SE4.5 kmh SE 5.4 mph8.7 kmh 29.99 in1015.6 mb 0.00 in0.0 mm 0.00 in/hr0.0 mm/hr 0.00 in0.0 mm
03:55 AM 56.3°F13.5°C 52.5°F11.4°C 87% 4.4 mph E7.1 kmh E 6.9 mph11.1 kmh 29.98 in1015.2 mb 0.00 in0.0 mm 0.00 in/hr0.0 mm/hr 0.00 in0.0 mm
04:00 AM 56.3°F13.5°C 52.8°F11.6°C 88% 4.6 mph ENE7.4 kmh ENE 6.9 mph11.1 kmh 29.99 in1015.6 mb 0.00 in0.0 mm 0.00 in/hr0.0 mm/hr 0.00 in0.0 mm
04:05 AM 56.1°F13.4°C 52.6°F11.4°C 88% 2.6 mph E4.2 kmh E 5.4 mph8.7 kmh 29.98 in1015.2 mb 0.00 in0.0 mm 0.00 in/hr0.0 mm/hr 0.00 in0.0 mm
04:10 AM 56.3°F13.5°C 52.8°F11.6°C 88% 0.9 mph S1.4 kmh S 2.2 mph3.5 kmh 29.99 in1015.6 mb 0.00 in0.0 mm 0.00 in/hr0.0 mm/hr 0.00 in0.0 mm
04:15 AM 56.1°F13.4°C 52.6°F11.4°C 88% 0.8 mph S1.3 kmh S 1.6 mph2.6 kmh 29.99 in1015.6 mb 0.00 in0.0 mm 0.00 in/hr0.0 mm/hr 0.00 in0.0 mm
04:20 AM 55.9°F13.3°C 52.4°F11.3°C 88% 0.9 mph ENE1.4 kmh ENE 3.1 mph5.0 kmh 29.98 in1015.2 mb 0.00 in0.0 mm 0.00 in/hr0.0 mm/hr 0.00 in0.0 mm
04:25 AM 55.9°F13.3°C 52.4°F11.3°C 88% 1.1 mph N1.8 kmh N 3.1 mph5.0 kmh 29.99 in1015.6 mb 0.00 in0.0 mm 0.00 in/hr0.0 mm/hr 0.00 in0.0 mm
04:30 AM 55.9°F13.3°C 52.4°F11.3°C 88% 1.2 mph W1.9 kmh W 3.1 mph5.0 kmh 30.00 in1015.9 mb 0.00 in0.0 mm 0.00 in/hr0.0 mm/hr 0.00 in0.0 mm
04:35 AM 55.8°F13.2°C 52.6°F11.4°C 89% 0.9 mph SW1.4 kmh SW 1.6 mph2.6 kmh 30.01 in1016.3 mb 0.00 in0.0 mm 0.00 in/hr0.0 mm/hr 0.00 in0.0 mm
04:40 AM 55.8°F13.2°C 52.6°F11.4°C 89% 1.0 mph SW1.6 kmh SW 2.2 mph3.5 kmh 30.00 in1015.9 mb 0.00 in0.0 mm 0.00 in/hr0.0 mm/hr 0.00 in0.0 mm
04:45 AM 55.8°F13.2°C 52.9°F11.6°C 90% 1.9 mph ESE3.1 kmh ESE 3.1 mph5.0 kmh 29.99 in1015.6 mb 0.01 in0.3 mm 0.12 in/hr3.0 mm/hr 0.01 in0.3 mm
04:50 AM 55.8°F13.2°C 52.9°F11.6°C 90% 2.2 mph E3.5 kmh E 3.1 mph5.0 kmh 29.99 in1015.6 mb 0.01 in0.3 mm 0.00 in/hr0.0 mm/hr 0.01 in0.3 mm
04:55 AM 55.8°F13.2°C 52.9°F11.6°C 90% 1.2 mph ESE1.9 kmh ESE 3.1 mph5.0 kmh 30.00 in1015.9 mb 0.01 in0.3 mm 0.00 in/hr0.0 mm/hr 0.01 in0.3 mm
05:00 AM 55.6°F13.1°C 52.7°F11.5°C 90% 1.3 mph WSW2.1 kmh WSW 3.1 mph5.0 kmh 30.02 in1016.6 mb 0.01 in0.3 mm 0.00 in/hr0.0 mm/hr 0.01 in0.3 mm
05:05 AM 55.4°F13.0°C 52.8°F11.6°C 91% 3.0 mph WSW4.8 kmh WSW 4.5 mph7.2 kmh 30.04 in1017.3 mb 0.01 in0.3 mm 0.00 in/hr0.0 mm/hr 0.01 in0.3 mm
05:10 AM 55.4°F13.0°C 52.8°F11.6°C 91% 3.3 mph WSW5.3 kmh WSW 4.5 mph7.2 kmh 30.04 in1017.3 mb 0.01 in0.3 mm 0.00 in/hr0.0 mm/hr 0.01 in0.3 mm
05:15 AM 55.6°F13.1°C 53.0°F11.7°C 91% 2.5 mph SW4.0 kmh SW 3.8 mph6.1 kmh 30.02 in1016.6 mb 0.02 in0.5 mm 0.12 in/hr3.0 mm/hr 0.02 in0.5 mm
05:20 AM 55.6°F13.1°C 53.0°F11.7°C 91% 2.4 mph ESE3.9 kmh ESE 3.8 mph6.1 kmh 30.01 in1016.3 mb 0.02 in0.5 mm 0.00 in/hr0.0 mm/hr 0.02 in0.5 mm
05:25 AM 55.6°F13.1°C 53.0°F11.7°C 91% 3.4 mph E5.5 kmh E 5.4 mph8.7 kmh 29.99 in1015.6 mb 0.04 in1.0 mm 0.24 in/hr6.1 mm/hr 0.04 in1.0 mm
05:30 AM 55.4°F13.0°C 52.8°F11.6°C 91% 5.4 mph E8.7 kmh E 9.8 mph15.8 kmh 29.98 in1015.2 mb 0.04 in1.0 mm 0.00 in/hr0.0 mm/hr 0.04 in1.0 mm
05:35 AM 55.0°F12.8°C 52.8°F11.6°C 92% 6.4 mph E10.3 kmh E 9.8 mph15.8 kmh 29.98 in1015.2 mb 0.04 in1.0 mm 0.00 in/hr0.0 mm/hr 0.04 in1.0 mm
05:40 AM 54.9°F12.7°C 52.6°F11.4°C 92% 4.7 mph ENE7.6 kmh ENE 9.8 mph15.8 kmh 29.98 in1015.2 mb 0.04 in1.0 mm 0.00 in/hr0.0 mm/hr 0.04 in1.0 mm
05:45 AM 54.9°F12.7°C 52.6°F11.4°C 92% 2.7 mph NE4.3 kmh NE 4.5 mph7.2 kmh 29.99 in1015.6 mb 0.02 in0.5 mm 0.00 in/hr0.0 mm/hr 0.04 in1.0 mm
05:50 AM 55.0°F12.8°C 52.8°F11.6°C 92% 2.0 mph N3.2 kmh N 3.1 mph5.0 kmh 30.00 in1015.9 mb 0.02 in0.5 mm 0.00 in/hr0.0 mm/hr 0.04 in1.0 mm
05:55 AM 54.7°F12.6°C 52.1°F11.2°C 91% 1.8 mph WSW2.9 kmh WSW 3.1 mph5.0 kmh 30.00 in1015.9 mb 0.02 in0.5 mm 0.00 in/hr0.0 mm/hr 0.04 in1.0 mm
06:00 AM 54.5°F12.5°C 52.2°F11.2°C 92% 1.4 mph WSW2.3 kmh WSW 2.2 mph3.5 kmh 30.00 in1015.9 mb 0.02 in0.5 mm 0.00 in/hr0.0 mm/hr 0.04 in1.0 mm
06:05 AM 54.3°F12.4°C 52.1°F11.2°C 92% 1.4 mph SW2.3 kmh SW 2.2 mph3.5 kmh 30.00 in1015.9 mb 0.02 in0.5 mm 0.00 in/hr0.0 mm/hr 0.04 in1.0 mm
06:10 AM 54.1°F12.3°C 51.9°F11.1°C 92% 2.1 mph S3.4 kmh S 3.8 mph6.1 kmh 30.00 in1015.9 mb 0.02 in0.5 mm 0.00 in/hr0.0 mm/hr 0.04 in1.0 mm
06:15 AM 54.0°F12.2°C 52.0°F11.1°C 93% 2.6 mph ESE4.2 kmh ESE 3.8 mph6.1 kmh 30.01 in1016.3 mb 0.01 in0.3 mm 0.00 in/hr0.0 mm/hr 0.04 in1.0 mm
06:20 AM 54.1°F12.3°C 52.2°F11.2°C 93% 2.5 mph SE4.0 kmh SE 3.1 mph5.0 kmh 30.01 in1016.3 mb 0.01 in0.3 mm 0.00 in/hr0.0 mm/hr 0.04 in1.0 mm
06:25 AM 53.8°F12.1°C 51.8°F11.0°C 93% 1.8 mph S2.9 kmh S 3.1 mph5.0 kmh 30.00 in1015.9 mb 0.00 in0.0 mm 0.00 in/hr0.0 mm/hr 0.04 in1.0 mm
06:30 AM 53.8°F12.1°C 51.8°F11.0°C 93% 2.0 mph S3.2 kmh S 3.1 mph5.0 kmh 30.01 in1016.3 mb 0.00 in0.0 mm 0.00 in/hr0.0 mm/hr 0.04 in1.0 mm
06:35 AM 53.6°F12.0°C 51.6°F10.9°C 93% 1.9 mph S3.1 kmh S 3.1 mph5.0 kmh 30.00 in1015.9 mb 0.00 in0.0 mm 0.00 in/hr0.0 mm/hr 0.04 in1.0 mm
06:40 AM 53.4°F11.9°C 51.5°F10.8°C 93% 0.7 mph S1.1 kmh S 3.1 mph5.0 kmh 30.01 in1016.3 mb 0.00 in0.0 mm 0.00 in/hr0.0 mm/hr 0.04 in1.0 mm
06:45 AM 53.1°F11.7°C 51.1°F10.6°C 93% 0.8 mph S1.3 kmh S 1.6 mph2.6 kmh 30.01 in1016.3 mb 0.00 in0.0 mm 0.00 in/hr0.0 mm/hr 0.04 in1.0 mm
06:50 AM 53.1°F11.7°C 51.1°F10.6°C 93% 1.0 mph S1.6 kmh S 1.6 mph2.6 kmh 30.01 in1016.3 mb 0.00 in0.0 mm 0.00 in/hr0.0 mm/hr 0.04 in1.0 mm
06:55 AM 52.9°F11.6°C 50.9°F10.5°C 93% 0.8 mph SE1.3 kmh SE 1.6 mph2.6 kmh 30.01 in1016.3 mb 0.00 in0.0 mm 0.00 in/hr0.0 mm/hr 0.04 in1.0 mm
07:00 AM 53.1°F11.7°C 51.1°F10.6°C 93% 0.5 mph E0.8 kmh E 1.6 mph2.6 kmh 30.02 in1016.6 mb 0.00 in0.0 mm 0.00 in/hr0.0 mm/hr 0.04 in1.0 mm
07:05 AM 53.4°F11.9°C 51.7°F10.9°C 94% 0.5 mph SE0.8 kmh SE 1.6 mph2.6 kmh 30.02 in1016.6 mb 0.00 in0.0 mm 0.00 in/hr0.0 mm/hr 0.04 in1.0 mm
07:10 AM 53.6°F12.0°C 51.9°F11.1°C 94% 1.1 mph SE1.8 kmh SE 1.6 mph2.6 kmh 30.02 in1016.6 mb 0.00 in0.0 mm 0.00 in/hr0.0 mm/hr 0.04 in1.0 mm
07:15 AM 53.8°F12.1°C 52.1°F11.2°C 94% 1.3 mph SE2.1 kmh SE 1.6 mph2.6 kmh 30.02 in1016.6 mb 0.00 in0.0 mm 0.00 in/hr0.0 mm/hr 0.04 in1.0 mm
07:20 AM 53.6°F12.0°C 51.6°F10.9°C 93% 1.2 mph S1.9 kmh S 2.2 mph3.5 kmh 30.02 in1016.6 mb 0.00 in0.0 mm 0.00 in/hr0.0 mm/hr 0.04 in1.0 mm
07:25 AM 53.4°F11.9°C 51.5°F10.8°C 93% 1.5 mph SE2.4 kmh SE 2.2 mph3.5 kmh 30.02 in1016.6 mb 0.00 in0.0 mm 0.00 in/hr0.0 mm/hr 0.04 in1.0 mm
07:30 AM 53.4°F11.9°C 51.5°F10.8°C 93% 1.8 mph SE2.9 kmh SE 2.2 mph3.5 kmh 30.02 in1016.6 mb 0.00 in0.0 mm 0.00 in/hr0.0 mm/hr 0.04 in1.0 mm
07:35 AM 53.2°F11.8°C 51.3°F10.7°C 93% 1.6 mph S2.6 kmh S 2.2 mph3.5 kmh 30.03 in1016.9 mb 0.00 in0.0 mm 0.00 in/hr0.0 mm/hr 0.04 in1.0 mm
07:40 AM 53.1°F11.7°C 51.4°F10.8°C 94% 1.5 mph S2.4 kmh S 1.6 mph2.6 kmh 30.03 in1016.9 mb 0.00 in0.0 mm 0.00 in/hr0.0 mm/hr 0.04 in1.0 mm
07:45 AM 53.4°F11.9°C 51.7°F10.9°C 94% 1.9 mph SSE3.1 kmh SSE 3.1 mph5.0 kmh 30.03 in1016.9 mb 0.00 in0.0 mm 0.00 in/hr0.0 mm/hr 0.04 in1.0 mm
07:50 AM 53.6°F12.0°C 51.9°F11.1°C 94% 1.5 mph SE2.4 kmh SE 3.1 mph5.0 kmh 30.03 in1016.9 mb 0.00 in0.0 mm 0.00 in/hr0.0 mm/hr 0.04 in1.0 mm
07:55 AM 54.3°F12.4°C 52.6°F11.4°C 94% 1.1 mph SE1.8 kmh SE 2.2 mph3.5 kmh 30.03 in1016.9 mb 0.00 in0.0 mm 0.00 in/hr0.0 mm/hr 0.04 in1.0 mm
08:00 AM 54.9°F12.7°C 53.2°F11.8°C 94% 1.7 mph SE2.7 kmh SE 2.2 mph3.5 kmh 30.04 in1017.3 mb 0.00 in0.0 mm 0.00 in/hr0.0 mm/hr 0.04 in1.0 mm
08:05 AM 55.0°F12.8°C 53.4°F11.9°C 94% 2.2 mph SE3.5 kmh SE 4.5 mph7.2 kmh 30.02 in1016.6 mb 0.00 in0.0 mm 0.00 in/hr0.0 mm/hr 0.04 in1.0 mm
08:10 AM 54.9°F12.7°C 52.9°F11.6°C 93% 2.7 mph SSE4.3 kmh SSE 4.5 mph7.2 kmh 30.04 in1017.3 mb 0.00 in0.0 mm 0.00 in/hr0.0 mm/hr 0.04 in1.0 mm
08:15 AM 55.0°F12.8°C 53.1°F11.7°C 93% 2.4 mph S3.9 kmh S 4.5 mph7.2 kmh 30.04 in1017.3 mb 0.00 in0.0 mm 0.00 in/hr0.0 mm/hr 0.04 in1.0 mm
08:20 AM 55.4°F13.0°C 53.4°F11.9°C 93% 1.6 mph S2.6 kmh S 3.1 mph5.0 kmh 30.04 in1017.3 mb 0.00 in0.0 mm 0.00 in/hr0.0 mm/hr 0.04 in1.0 mm
08:25 AM 55.6°F13.1°C 53.6°F12.0°C 93% 1.4 mph S2.3 kmh S 2.2 mph3.5 kmh 30.04 in1017.3 mb 0.00 in0.0 mm 0.00 in/hr0.0 mm/hr 0.04 in1.0 mm
08:30 AM 55.8°F13.2°C 53.8°F12.1°C 93% 1.7 mph S2.7 kmh S 3.1 mph5.0 kmh 30.04 in1017.3 mb 0.00 in0.0 mm 0.00 in/hr0.0 mm/hr 0.04 in1.0 mm
08:35 AM 55.9°F13.3°C 54.0°F12.2°C 93% 2.3 mph SSE3.7 kmh SSE 3.1 mph5.0 kmh 30.04 in1017.3 mb 0.00 in0.0 mm 0.00 in/hr0.0 mm/hr 0.04 in1.0 mm
08:40 AM 56.1°F13.4°C 54.1°F12.3°C 93% 2.3 mph SE3.7 kmh SE 3.1 mph5.0 kmh 30.04 in1017.3 mb 0.00 in0.0 mm 0.00 in/hr0.0 mm/hr 0.04 in1.0 mm
08:45 AM 56.3°F13.5°C 54.3°F12.4°C 93% 1.9 mph SSE3.1 kmh SSE 2.2 mph3.5 kmh 30.04 in1017.3 mb 0.00 in0.0 mm 0.00 in/hr0.0 mm/hr 0.04 in1.0 mm
08:50 AM 56.5°F13.6°C 54.2°F12.3°C 92% 1.9 mph S3.1 kmh S 2.2 mph3.5 kmh 30.04 in1017.3 mb 0.00 in0.0 mm 0.00 in/hr0.0 mm/hr 0.04 in1.0 mm
08:55 AM 56.7°F13.7°C 54.4°F12.4°C 92% 1.8 mph S2.9 kmh S 2.2 mph3.5 kmh 30.03 in1016.9 mb 0.00 in0.0 mm 0.00 in/hr0.0 mm/hr 0.04 in1.0 mm
09:00 AM 56.8°F13.8°C 54.6°F12.6°C 92% 1.1 mph S1.8 kmh S 1.6 mph2.6 kmh 30.04 in1017.3 mb 0.00 in0.0 mm 0.00 in/hr0.0 mm/hr 0.04 in1.0 mm
09:05 AM 57.2°F14.0°C 54.6°F12.6°C 91% 0.6 mph S1.0 kmh S 1.6 mph2.6 kmh 30.04 in1017.3 mb 0.00 in0.0 mm 0.00 in/hr0.0 mm/hr 0.04 in1.0 mm
09:10 AM 57.4°F14.1°C 54.8°F12.7°C 91% 0.9 mph S1.4 kmh S 1.6 mph2.6 kmh 30.03 in1016.9 mb 0.00 in0.0 mm 0.00 in/hr0.0 mm/hr 0.04 in1.0 mm
09:15 AM 57.7°F14.3°C 54.8°F12.7°C 90% 1.2 mph S1.9 kmh S 1.6 mph2.6 kmh 30.03 in1016.9 mb 0.00 in0.0 mm 0.00 in/hr0.0 mm/hr 0.04 in1.0 mm
09:20 AM 58.1°F14.5°C 55.5°F13.1°C 91% 1.2 mph S1.9 kmh S 1.6 mph2.6 kmh 30.04 in1017.3 mb 0.00 in0.0 mm 0.00 in/hr0.0 mm/hr 0.04 in1.0 mm
09:25 AM 59.7°F15.4°C 57.1°F13.9°C 91% 1.6 mph S2.6 kmh S 2.2 mph3.5 kmh 30.04 in1017.3 mb 0.00 in0.0 mm 0.00 in/hr0.0 mm/hr 0.04 in1.0 mm
09:30 AM 61.5°F16.4°C 58.3°F14.6°C 89% 1.6 mph S2.6 kmh S 2.2 mph3.5 kmh 30.04 in1017.3 mb 0.00 in0.0 mm 0.00 in/hr0.0 mm/hr 0.04 in1.0 mm
09:35 AM 62.8°F17.1°C 58.5°F14.7°C 86% 1.4 mph S2.3 kmh S 2.2 mph3.5 kmh 30.04 in1017.3 mb 0.00 in0.0 mm 0.00 in/hr0.0 mm/hr 0.04 in1.0 mm
09:40 AM 63.9°F17.7°C 58.6°F14.8°C 83% 1.8 mph SE2.9 kmh SE 2.2 mph3.5 kmh 30.03 in1016.9 mb 0.00 in0.0 mm 0.00 in/hr0.0 mm/hr 0.04 in1.0 mm
09:45 AM 64.9°F18.3°C 59.0°F15.0°C 81% 2.2 mph SE3.5 kmh SE 3.8 mph6.1 kmh 30.03 in1016.9 mb 0.00 in0.0 mm 0.00 in/hr0.0 mm/hr 0.04 in1.0 mm
09:50 AM 65.7°F18.7°C 58.6°F14.8°C 78% 2.7 mph ESE4.3 kmh ESE 4.5 mph7.2 kmh 30.03 in1016.9 mb 0.00 in0.0 mm 0.00 in/hr0.0 mm/hr 0.04 in1.0 mm
09:55 AM 66.2°F19.0°C 58.8°F14.9°C 77% 3.2 mph E5.1 kmh E 5.4 mph8.7 kmh 30.03 in1016.9 mb 0.00 in0.0 mm 0.00 in/hr0.0 mm/hr 0.04 in1.0 mm
10:00 AM 66.6°F19.2°C 58.4°F14.7°C 75% 3.2 mph E5.1 kmh E 5.4 mph8.7 kmh 30.03 in1016.9 mb 0.00 in0.0 mm 0.00 in/hr0.0 mm/hr 0.04 in1.0 mm
10:05 AM 67.3°F19.6°C 59.1°F15.1°C 75% 3.5 mph E5.6 kmh E 5.4 mph8.7 kmh 30.02 in1016.6 mb 0.00 in0.0 mm 0.00 in/hr0.0 mm/hr 0.04 in1.0 mm
10:10 AM 67.5°F19.7°C 58.5°F14.7°C 73% 3.8 mph E6.1 kmh E 5.4 mph8.7 kmh 30.03 in1016.9 mb 0.00 in0.0 mm 0.00 in/hr0.0 mm/hr 0.04 in1.0 mm
10:15 AM 67.6°F19.8°C 58.3°F14.6°C 72% 3.2 mph E5.1 kmh E 5.4 mph8.7 kmh 30.03 in1016.9 mb 0.00 in0.0 mm 0.00 in/hr0.0 mm/hr 0.04 in1.0 mm
10:20 AM 67.5°F19.7°C 57.4°F14.1°C 70% 2.9 mph NE4.7 kmh NE 4.5 mph7.2 kmh 30.03 in1016.9 mb 0.00 in0.0 mm 0.00 in/hr0.0 mm/hr 0.04 in1.0 mm
10:25 AM 67.8°F19.9°C 57.7°F14.3°C 70% 2.9 mph ENE4.7 kmh ENE 5.4 mph8.7 kmh 30.02 in1016.6 mb 0.00 in0.0 mm 0.00 in/hr0.0 mm/hr 0.04 in1.0 mm
10:30 AM 67.6°F19.8°C 57.5°F14.2°C 70% 3.5 mph NE5.6 kmh NE 5.4 mph8.7 kmh 30.02 in1016.6 mb 0.00 in0.0 mm 0.00 in/hr0.0 mm/hr 0.04 in1.0 mm
10:35 AM 68.5°F20.3°C 58.0°F14.4°C 69% 3.8 mph NE6.1 kmh NE 5.4 mph8.7 kmh 30.02 in1016.6 mb 0.00 in0.0 mm 0.00 in/hr0.0 mm/hr 0.04 in1.0 mm
10:40 AM 69.4°F20.8°C 58.4°F14.7°C 68% 3.1 mph N5.0 kmh N 4.5 mph7.2 kmh 30.02 in1016.6 mb 0.00 in0.0 mm 0.00 in/hr0.0 mm/hr 0.04 in1.0 mm
10:45 AM 70.2°F21.2°C 59.1°F15.1°C 68% 3.0 mph N4.8 kmh N 5.4 mph8.7 kmh 30.02 in1016.6 mb 0.00 in0.0 mm 0.00 in/hr0.0 mm/hr 0.04 in1.0 mm
10:50 AM 70.7°F21.5°C 58.4°F14.7°C 65% 3.6 mph NNE5.8 kmh NNE 5.4 mph8.7 kmh 30.02 in1016.6 mb 0.00 in0.0 mm 0.00 in/hr0.0 mm/hr 0.04 in1.0 mm
10:55 AM 70.7°F21.5°C 57.1°F13.9°C 62% 4.2 mph NNE6.8 kmh NNE 9.2 mph14.8 kmh 30.02 in1016.6 mb 0.00 in0.0 mm 0.00 in/hr0.0 mm/hr 0.04 in1.0 mm
11:00 AM 70.7°F21.5°C 57.5°F14.2°C 63% 4.3 mph N6.9 kmh N 9.2 mph14.8 kmh 30.02 in1016.6 mb 0.00 in0.0 mm 0.00 in/hr0.0 mm/hr 0.04 in1.0 mm
11:05 AM 71.2°F21.8°C 56.7°F13.7°C 60% 4.5 mph N7.2 kmh N 6.9 mph11.1 kmh 30.02 in1016.6 mb 0.00 in0.0 mm 0.00 in/hr0.0 mm/hr 0.04 in1.0 mm
11:10 AM 70.5°F21.4°C 56.0°F13.3°C 60% 4.9 mph NW7.9 kmh NW 7.6 mph12.2 kmh 30.01 in1016.3 mb 0.00 in0.0 mm 0.00 in/hr0.0 mm/hr 0.04 in1.0 mm
11:15 AM 69.3°F20.7°C 55.3°F12.9°C 61% 5.0 mph NW8.0 kmh NW 7.6 mph12.2 kmh 30.02 in1016.6 mb 0.00 in0.0 mm 0.00 in/hr0.0 mm/hr 0.04 in1.0 mm
11:20 AM 69.1°F20.6°C 55.5°F13.1°C 62% 4.5 mph NW7.2 kmh NW 6.0 mph9.7 kmh 30.02 in1016.6 mb 0.00 in0.0 mm 0.00 in/hr0.0 mm/hr 0.04 in1.0 mm
11:25 AM 69.1°F20.6°C 55.1°F12.8°C 61% 4.2 mph NW6.8 kmh NW 6.9 mph11.1 kmh 30.02 in1016.6 mb 0.00 in0.0 mm 0.00 in/hr0.0 mm/hr 0.04 in1.0 mm
11:30 AM 69.1°F20.6°C 54.6°F12.6°C 60% 5.4 mph NNW8.7 kmh NNW 7.6 mph12.2 kmh 30.01 in1016.3 mb 0.00 in0.0 mm 0.00 in/hr0.0 mm/hr 0.04 in1.0 mm
11:35 AM 69.4°F20.8°C 54.5°F12.5°C 59% 6.7 mph NW10.8 kmh NW 9.2 mph14.8 kmh 30.01 in1016.3 mb 0.00 in0.0 mm 0.00 in/hr0.0 mm/hr 0.04 in1.0 mm
11:40 AM 69.6°F20.9°C 53.7°F12.1°C 57% 7.4 mph NW11.9 kmh NW 9.2 mph14.8 kmh 30.01 in1016.3 mb 0.00 in0.0 mm 0.00 in/hr0.0 mm/hr 0.04 in1.0 mm
11:45 AM 70.0°F21.1°C 54.6°F12.6°C 58% 8.1 mph NNW13.0 kmh NNW 10.7 mph17.2 kmh 30.01 in1016.3 mb 0.00 in0.0 mm 0.00 in/hr0.0 mm/hr 0.04 in1.0 mm
11:50 AM 69.6°F20.9°C 53.7°F12.1°C 57% 8.4 mph NNW13.5 kmh NNW 10.7 mph17.2 kmh 30.01 in1016.3 mb 0.00 in0.0 mm 0.00 in/hr0.0 mm/hr 0.04 in1.0 mm
11:55 AM 70.0°F21.1°C 55.0°F12.8°C 59% 7.3 mph NW11.7 kmh NW 10.7 mph17.2 kmh 30.00 in1015.9 mb 0.00 in0.0 mm 0.00 in/hr0.0 mm/hr 0.04 in1.0 mm
12:00 PM 70.3°F21.3°C 54.9°F12.7°C 58% 6.3 mph NNW10.1 kmh NNW 9.8 mph15.8 kmh 30.00 in1015.9 mb 0.00 in0.0 mm 0.00 in/hr0.0 mm/hr 0.04 in1.0 mm
12:05 PM 69.8°F21.0°C 54.4°F12.4°C 58% 6.2 mph NNW10.0 kmh NNW 8.3 mph13.4 kmh 30.00 in1015.9 mb 0.00 in0.0 mm 0.00 in/hr0.0 mm/hr 0.04 in1.0 mm
12:10 PM 70.3°F21.3°C 55.4°F13.0°C 59% 6.8 mph NW10.9 kmh NW 8.3 mph13.4 kmh 29.99 in1015.6 mb 0.00 in0.0 mm 0.00 in/hr0.0 mm/hr 0.04 in1.0 mm
12:15 PM 71.2°F21.8°C 56.2°F13.4°C 59% 7.0 mph NNW11.3 kmh NNW 9.8 mph15.8 kmh 29.99 in1015.6 mb 0.00 in0.0 mm 0.00 in/hr0.0 mm/hr 0.04 in1.0 mm
12:20 PM 72.0°F22.2°C 55.9°F13.3°C 57% 7.3 mph NNW11.7 kmh NNW 9.8 mph15.8 kmh 29.99 in1015.6 mb 0.00 in0.0 mm 0.00 in/hr0.0 mm/hr 0.04 in1.0 mm
12:25 PM 72.1°F22.3°C 55.6°F13.1°C 56% 8.0 mph NW12.9 kmh NW 9.8 mph15.8 kmh 29.98 in1015.2 mb 0.00 in0.0 mm 0.00 in/hr0.0 mm/hr 0.04 in1.0 mm
12:30 PM 72.7°F22.6°C 56.6°F13.7°C 57% 7.8 mph NNW12.6 kmh NNW 9.8 mph15.8 kmh 29.98 in1015.2 mb 0.00 in0.0 mm 0.00 in/hr0.0 mm/hr 0.04 in1.0 mm
12:35 PM 73.2°F22.9°C 56.1°F13.4°C 55% 6.9 mph NNW11.1 kmh NNW 9.2 mph14.8 kmh 29.98 in1015.2 mb 0.00 in0.0 mm 0.00 in/hr0.0 mm/hr 0.04 in1.0 mm
12:40 PM 72.9°F22.7°C 55.8°F13.2°C 55% 4.9 mph NW7.9 kmh NW 6.9 mph11.1 kmh 29.98 in1015.2 mb 0.00 in0.0 mm 0.00 in/hr0.0 mm/hr 0.04 in1.0 mm
12:45 PM 73.2°F22.9°C 56.6°F13.7°C 56% 4.8 mph NW7.7 kmh NW 9.2 mph14.8 kmh 29.97 in1014.9 mb 0.00 in0.0 mm 0.00 in/hr0.0 mm/hr 0.04 in1.0 mm
12:50 PM 74.1°F23.4°C 57.5°F14.2°C 56% 4.8 mph NNW7.7 kmh NNW 9.2 mph14.8 kmh 29.97 in1014.9 mb 0.00 in0.0 mm 0.00 in/hr0.0 mm/hr 0.04 in1.0 mm
12:55 PM 75.2°F24.0°C 57.4°F14.1°C 54% 5.4 mph NW8.7 kmh NW 9.2 mph14.8 kmh 29.97 in1014.9 mb 0.00 in0.0 mm 0.00 in/hr0.0 mm/hr 0.04 in1.0 mm
01:00 PM 75.2°F24.0°C 56.9°F13.8°C 53% 5.6 mph NW9.0 kmh NW 9.2 mph14.8 kmh 29.97 in1014.9 mb 0.00 in0.0 mm 0.00 in/hr0.0 mm/hr 0.04 in1.0 mm
01:05 PM 74.8°F23.8°C 56.6°F13.7°C 53% 4.6 mph NW7.4 kmh NW 6.9 mph11.1 kmh 29.97 in1014.9 mb 0.00 in0.0 mm 0.00 in/hr0.0 mm/hr 0.04 in1.0 mm
01:10 PM 74.1°F23.4°C 55.9°F13.3°C 53% 6.6 mph NNW10.6 kmh NNW 9.2 mph14.8 kmh 29.96 in1014.6 mb 0.00 in0.0 mm 0.00 in/hr0.0 mm/hr 0.04 in1.0 mm
01:15 PM 73.2°F22.9°C 55.1°F12.8°C 53% 7.5 mph NW12.1 kmh NW 9.2 mph14.8 kmh 29.97 in1014.9 mb 0.00 in0.0 mm 0.00 in/hr0.0 mm/hr 0.04 in1.0 mm
01:20 PM 73.8°F23.2°C 56.1°F13.4°C 54% 7.6 mph WNW12.2 kmh WNW 9.8 mph15.8 kmh 29.97 in1014.9 mb 0.00 in0.0 mm 0.00 in/hr0.0 mm/hr 0.04 in1.0 mm
01:25 PM 74.3°F23.5°C 56.6°F13.7°C 54% 6.4 mph WNW10.3 kmh WNW 9.8 mph15.8 kmh 29.96 in1014.6 mb 0.00 in0.0 mm 0.00 in/hr0.0 mm/hr 0.04 in1.0 mm
01:30 PM 74.5°F23.6°C 56.3°F13.5°C 53% 5.5 mph NW8.9 kmh NW 7.6 mph12.2 kmh 29.96 in1014.6 mb 0.00 in0.0 mm 0.00 in/hr0.0 mm/hr 0.04 in1.0 mm
01:35 PM 74.8°F23.8°C 55.5°F13.1°C 51% 7.3 mph NW11.7 kmh NW 10.7 mph17.2 kmh 29.95 in1014.2 mb 0.00 in0.0 mm 0.00 in/hr0.0 mm/hr 0.04 in1.0 mm
01:40 PM 75.0°F23.9°C 56.2°F13.4°C 52% 8.5 mph WNW13.7 kmh WNW 11.4 mph18.3 kmh 29.95 in1014.2 mb 0.00 in0.0 mm 0.00 in/hr0.0 mm/hr 0.04 in1.0 mm
01:45 PM 75.2°F24.0°C 56.9°F13.8°C 53% 7.3 mph NW11.7 kmh NW 11.4 mph18.3 kmh 29.95 in1014.2 mb 0.00 in0.0 mm 0.00 in/hr0.0 mm/hr 0.04 in1.0 mm
01:50 PM 75.6°F24.2°C 56.2°F13.4°C 51% 6.6 mph NW10.6 kmh NW 9.2 mph14.8 kmh 29.95 in1014.2 mb 0.00 in0.0 mm 0.00 in/hr0.0 mm/hr 0.04 in1.0 mm
01:55 PM 75.4°F24.1°C 56.0°F13.3°C 51% 7.0 mph NW11.3 kmh NW 9.2 mph14.8 kmh 29.95 in1014.2 mb 0.00 in0.0 mm 0.00 in/hr0.0 mm/hr 0.04 in1.0 mm
02:00 PM 73.4°F23.0°C 54.7°F12.6°C 52% 6.6 mph NW10.6 kmh NW 9.2 mph14.8 kmh 29.94 in1013.9 mb 0.00 in0.0 mm 0.00 in/hr0.0 mm/hr 0.04 in1.0 mm
02:05 PM 72.5°F22.5°C 54.9°F12.7°C 54% 6.2 mph NNW10.0 kmh NNW 9.2 mph14.8 kmh 29.95 in1014.2 mb 0.00 in0.0 mm 0.00 in/hr0.0 mm/hr 0.04 in1.0 mm
02:10 PM 73.4°F23.0°C 56.3°F13.5°C 55% 4.7 mph N7.6 kmh N 8.3 mph13.4 kmh 29.94 in1013.9 mb 0.00 in0.0 mm 0.00 in/hr0.0 mm/hr 0.04 in1.0 mm
02:15 PM 73.6°F23.1°C 55.4°F13.0°C 53% 4.1 mph NNW6.6 kmh NNW 8.3 mph13.4 kmh 29.94 in1013.9 mb 0.00 in0.0 mm 0.00 in/hr0.0 mm/hr 0.04 in1.0 mm
02:20 PM 73.6°F23.1°C 55.4°F13.0°C 53% 7.1 mph WNW11.4 kmh WNW 10.7 mph17.2 kmh 29.95 in1014.2 mb 0.00 in0.0 mm 0.00 in/hr0.0 mm/hr 0.04 in1.0 mm
02:25 PM 73.6°F23.1°C 54.9°F12.7°C 52% 8.9 mph NW14.3 kmh NW 11.4 mph18.3 kmh 29.95 in1014.2 mb 0.00 in0.0 mm 0.00 in/hr0.0 mm/hr 0.04 in1.0 mm
02:30 PM 72.9°F22.7°C 54.8°F12.7°C 53% 7.7 mph NW12.4 kmh NW 11.4 mph18.3 kmh 29.95 in1014.2 mb 0.00 in0.0 mm 0.00 in/hr0.0 mm/hr 0.04 in1.0 mm
02:35 PM 72.1°F22.3°C 54.6°F12.6°C 54% 6.0 mph NW9.7 kmh NW 8.3 mph13.4 kmh 29.94 in1013.9 mb 0.00 in0.0 mm 0.00 in/hr0.0 mm/hr 0.04 in1.0 mm
02:40 PM 71.4°F21.9°C 54.4°F12.4°C 55% 4.7 mph NW7.6 kmh NW 6.9 mph11.1 kmh 29.95 in1014.2 mb 0.00 in0.0 mm 0.00 in/hr0.0 mm/hr 0.04 in1.0 mm
02:45 PM 71.4°F21.9°C 54.9°F12.7°C 56% 4.0 mph NW6.4 kmh NW 6.9 mph11.1 kmh 29.94 in1013.9 mb 0.00 in0.0 mm 0.00 in/hr0.0 mm/hr 0.04 in1.0 mm
02:50 PM 72.1°F22.3°C 55.6°F13.1°C 56% 3.7 mph WNW6.0 kmh WNW 5.4 mph8.7 kmh 29.94 in1013.9 mb 0.00 in0.0 mm 0.00 in/hr0.0 mm/hr 0.04 in1.0 mm
02:55 PM 73.6°F23.1°C 55.9°F13.3°C 54% 3.1 mph W5.0 kmh W 5.4 mph8.7 kmh 29.94 in1013.9 mb 0.00 in0.0 mm 0.00 in/hr0.0 mm/hr 0.04 in1.0 mm
03:00 PM 73.0°F22.8°C 54.9°F12.7°C 53% 4.5 mph WNW7.2 kmh WNW 9.8 mph15.8 kmh 29.93 in1013.5 mb 0.00 in0.0 mm 0.00 in/hr0.0 mm/hr 0.04 in1.0 mm
03:05 PM 72.0°F22.2°C 54.4°F12.4°C 54% 6.2 mph NW10.0 kmh NW 9.8 mph15.8 kmh 29.93 in1013.5 mb 0.00 in0.0 mm 0.00 in/hr0.0 mm/hr 0.04 in1.0 mm
03:10 PM 71.4°F21.9°C 54.9°F12.7°C 56% 5.1 mph NNW8.2 kmh NNW 8.3 mph13.4 kmh 29.94 in1013.9 mb 0.00 in0.0 mm 0.00 in/hr0.0 mm/hr 0.04 in1.0 mm
03:15 PM 71.2°F21.8°C 54.8°F12.7°C 56% 4.0 mph N6.4 kmh N 6.0 mph9.7 kmh 29.93 in1013.5 mb 0.00 in0.0 mm 0.00 in/hr0.0 mm/hr 0.04 in1.0 mm
03:20 PM 71.1°F21.7°C 54.6°F12.6°C 56% 5.1 mph N8.2 kmh N 8.3 mph13.4 kmh 29.93 in1013.5 mb 0.00 in0.0 mm 0.00 in/hr0.0 mm/hr 0.04 in1.0 mm
03:25 PM 71.2°F21.8°C 54.8°F12.7°C 56% 6.2 mph N10.0 kmh N 8.3 mph13.4 kmh 29.93 in1013.5 mb 0.00 in0.0 mm 0.00 in/hr0.0 mm/hr 0.04 in1.0 mm
03:30 PM 70.9°F21.6°C 54.4°F12.4°C 56% 6.7 mph N10.8 kmh N 10.7 mph17.2 kmh 29.93 in1013.5 mb 0.00 in0.0 mm 0.00 in/hr0.0 mm/hr 0.04 in1.0 mm
03:35 PM 70.5°F21.4°C 54.6°F12.6°C 57% 6.9 mph N11.1 kmh N 10.7 mph17.2 kmh 29.93 in1013.5 mb 0.00 in0.0 mm 0.00 in/hr0.0 mm/hr 0.04 in1.0 mm
03:40 PM 70.7°F21.5°C 53.8°F12.1°C 55% 5.9 mph NW9.5 kmh NW 9.2 mph14.8 kmh 29.93 in1013.5 mb 0.00 in0.0 mm 0.00 in/hr0.0 mm/hr 0.04 in1.0 mm
03:45 PM 70.7°F21.5°C 54.3°F12.4°C 56% 4.9 mph WNW7.9 kmh WNW 6.9 mph11.1 kmh 29.93 in1013.5 mb 0.00 in0.0 mm 0.00 in/hr0.0 mm/hr 0.04 in1.0 mm
03:50 PM 70.7°F21.5°C 54.3°F12.4°C 56% 4.2 mph WNW6.8 kmh WNW 5.4 mph8.7 kmh 29.93 in1013.5 mb 0.00 in0.0 mm 0.00 in/hr0.0 mm/hr 0.04 in1.0 mm
03:55 PM 70.7°F21.5°C 54.3°F12.4°C 56% 3.5 mph NW5.6 kmh NW 5.4 mph8.7 kmh 29.93 in1013.5 mb 0.00 in0.0 mm 0.00 in/hr0.0 mm/hr 0.04 in1.0 mm
04:00 PM 70.3°F21.3°C 53.9°F12.2°C 56% 3.2 mph NW5.1 kmh NW 5.4 mph8.7 kmh 29.94 in1013.9 mb 0.00 in0.0 mm 0.00 in/hr0.0 mm/hr 0.04 in1.0 mm
04:05 PM 70.2°F21.2°C 54.2°F12.3°C 57% 3.7 mph NW6.0 kmh NW 5.4 mph8.7 kmh 29.93 in1013.5 mb 0.00 in0.0 mm 0.00 in/hr0.0 mm/hr 0.04 in1.0 mm
04:10 PM 70.3°F21.3°C 54.4°F12.4°C 57% 3.9 mph WNW6.3 kmh WNW 5.4 mph8.7 kmh 29.93 in1013.5 mb 0.00 in0.0 mm 0.00 in/hr0.0 mm/hr 0.04 in1.0 mm
04:15 PM 70.3°F21.3°C 54.4°F12.4°C 57% 3.8 mph WNW6.1 kmh WNW 5.4 mph8.7 kmh 29.93 in1013.5 mb 0.00 in0.0 mm 0.00 in/hr0.0 mm/hr 0.04 in1.0 mm
04:20 PM 70.2°F21.2°C 54.2°F12.3°C 57% 4.1 mph W6.6 kmh W 5.4 mph8.7 kmh 29.93 in1013.5 mb 0.00 in0.0 mm 0.00 in/hr0.0 mm/hr 0.04 in1.0 mm
04:25 PM 69.8°F21.0°C 53.9°F12.2°C 57% 4.4 mph WNW7.1 kmh WNW 5.4 mph8.7 kmh 29.93 in1013.5 mb 0.00 in0.0 mm 0.00 in/hr0.0 mm/hr 0.04 in1.0 mm
04:30 PM 69.6°F20.9°C 54.2°F12.3°C 58% 4.5 mph WNW7.2 kmh WNW 5.4 mph8.7 kmh 29.94 in1013.9 mb 0.00 in0.0 mm 0.00 in/hr0.0 mm/hr 0.04 in1.0 mm
04:35 PM 69.4°F20.8°C 54.0°F12.2°C 58% 3.6 mph W5.8 kmh W 5.4 mph8.7 kmh 29.94 in1013.9 mb 0.00 in0.0 mm 0.00 in/hr0.0 mm/hr 0.04 in1.0 mm
04:40 PM 69.1°F20.6°C 54.2°F12.3°C 59% 3.7 mph W6.0 kmh W 5.4 mph8.7 kmh 29.93 in1013.5 mb 0.00 in0.0 mm 0.00 in/hr0.0 mm/hr 0.04 in1.0 mm
04:45 PM 68.9°F20.5°C 54.0°F12.2°C 59% 3.6 mph W5.8 kmh W 5.4 mph8.7 kmh 29.94 in1013.9 mb 0.00 in0.0 mm 0.00 in/hr0.0 mm/hr 0.04 in1.0 mm
04:50 PM 68.7°F20.4°C 53.8°F12.1°C 59% 2.5 mph W4.0 kmh W 3.8 mph6.1 kmh 29.93 in1013.5 mb 0.00 in0.0 mm 0.00 in/hr0.0 mm/hr 0.04 in1.0 mm
04:55 PM 68.4°F20.2°C 54.0°F12.2°C 60% 1.8 mph WNW2.9 kmh WNW 3.1 mph5.0 kmh 29.94 in1013.9 mb 0.00 in0.0 mm 0.00 in/hr0.0 mm/hr 0.04 in1.0 mm
05:00 PM 68.2°F20.1°C 53.8°F12.1°C 60% 1.6 mph WNW2.6 kmh WNW 2.2 mph3.5 kmh 29.93 in1013.5 mb 0.00 in0.0 mm 0.00 in/hr0.0 mm/hr 0.04 in1.0 mm
05:05 PM 68.0°F20.0°C 54.1°F12.3°C 61% 1.7 mph WNW2.7 kmh WNW 3.1 mph5.0 kmh 29.93 in1013.5 mb 0.00 in0.0 mm 0.00 in/hr0.0 mm/hr 0.04 in1.0 mm
05:10 PM 67.6°F19.8°C 54.2°F12.3°C 62% 1.7 mph WNW2.7 kmh WNW 3.1 mph5.0 kmh 29.93 in1013.5 mb 0.00 in0.0 mm 0.00 in/hr0.0 mm/hr 0.04 in1.0 mm
05:15 PM 67.3°F19.6°C 53.8°F12.1°C 62% 1.0 mph W1.6 kmh W 2.2 mph3.5 kmh 29.93 in1013.5 mb 0.00 in0.0 mm 0.00 in/hr0.0 mm/hr 0.04 in1.0 mm
05:20 PM 66.9°F19.4°C 53.9°F12.2°C 63% 0.3 mph W0.5 kmh W 1.6 mph2.6 kmh 29.93 in1013.5 mb 0.00 in0.0 mm 0.00 in/hr0.0 mm/hr 0.04 in1.0 mm
05:25 PM 66.6°F19.2°C 54.0°F12.2°C 64% 0.6 mph WSW1.0 kmh WSW 1.6 mph2.6 kmh 29.94 in1013.9 mb 0.00 in0.0 mm 0.00 in/hr0.0 mm/hr 0.04 in1.0 mm
05:30 PM 66.4°F19.1°C 53.9°F12.2°C 64% 1.3 mph WSW2.1 kmh WSW 2.2 mph3.5 kmh 29.94 in1013.9 mb 0.00 in0.0 mm 0.00 in/hr0.0 mm/hr 0.04 in1.0 mm
05:35 PM 66.2°F19.0°C 54.1°F12.3°C 65% 1.7 mph WSW2.7 kmh WSW 2.2 mph3.5 kmh 29.94 in1013.9 mb 0.00 in0.0 mm 0.00 in/hr0.0 mm/hr 0.04 in1.0 mm
05:40 PM 66.0°F18.9°C 54.4°F12.4°C 66% 2.4 mph W3.9 kmh W 4.5 mph7.2 kmh 29.94 in1013.9 mb 0.00 in0.0 mm 0.00 in/hr0.0 mm/hr 0.04 in1.0 mm
05:45 PM 66.0°F18.9°C 54.8°F12.7°C 67% 2.6 mph WSW4.2 kmh WSW 4.5 mph7.2 kmh 29.94 in1013.9 mb 0.00 in0.0 mm 0.00 in/hr0.0 mm/hr 0.04 in1.0 mm
05:50 PM 66.0°F18.9°C 54.8°F12.7°C 67% 1.9 mph WSW3.1 kmh WSW 3.1 mph5.0 kmh 29.94 in1013.9 mb 0.00 in0.0 mm 0.00 in/hr0.0 mm/hr 0.04 in1.0 mm
05:55 PM 65.8°F18.8°C 55.0°F12.8°C 68% 1.7 mph WSW2.7 kmh WSW 3.1 mph5.0 kmh 29.94 in1013.9 mb 0.00 in0.0 mm 0.00 in/hr0.0 mm/hr 0.04 in1.0 mm
06:00 PM 65.7°F18.7°C 55.2°F12.9°C 69% 2.0 mph WSW3.2 kmh WSW 3.8 mph6.1 kmh 29.95 in1014.2 mb 0.00 in0.0 mm 0.00 in/hr0.0 mm/hr 0.04 in1.0 mm
06:05 PM 65.3°F18.5°C 54.9°F12.7°C 69% 2.0 mph WSW3.2 kmh WSW 3.8 mph6.1 kmh 29.94 in1013.9 mb 0.00 in0.0 mm 0.00 in/hr0.0 mm/hr 0.04 in1.0 mm
06:10 PM 64.8°F18.2°C 54.8°F12.7°C 70% 1.9 mph W3.1 kmh W 3.1 mph5.0 kmh 29.95 in1014.2 mb 0.00 in0.0 mm 0.00 in/hr0.0 mm/hr 0.04 in1.0 mm
06:15 PM 64.6°F18.1°C 54.6°F12.6°C 70% 2.4 mph WSW3.9 kmh WSW 4.5 mph7.2 kmh 29.95 in1014.2 mb 0.00 in0.0 mm 0.00 in/hr0.0 mm/hr 0.04 in1.0 mm
06:20 PM 64.4°F18.0°C 54.4°F12.4°C 70% 3.1 mph WSW5.0 kmh WSW 4.5 mph7.2 kmh 29.95 in1014.2 mb 0.00 in0.0 mm 0.00 in/hr0.0 mm/hr 0.04 in1.0 mm
06:25 PM 64.0°F17.8°C 54.1°F12.3°C 70% 3.0 mph W4.8 kmh W 3.8 mph6.1 kmh 29.95 in1014.2 mb 0.00 in0.0 mm 0.00 in/hr0.0 mm/hr 0.04 in1.0 mm
06:30 PM 63.9°F17.7°C 53.9°F12.2°C 70% 2.3 mph W3.7 kmh W 3.1 mph5.0 kmh 29.95 in1014.2 mb 0.00 in0.0 mm 0.00 in/hr0.0 mm/hr 0.04 in1.0 mm
06:35 PM 63.7°F17.6°C 53.7°F12.1°C 70% 2.3 mph W3.7 kmh W 3.8 mph6.1 kmh 29.95 in1014.2 mb 0.00 in0.0 mm 0.00 in/hr0.0 mm/hr 0.04 in1.0 mm
06:40 PM 63.5°F17.5°C 53.9°F12.2°C 71% 2.1 mph W3.4 kmh W 3.8 mph6.1 kmh 29.95 in1014.2 mb 0.00 in0.0 mm 0.00 in/hr0.0 mm/hr 0.04 in1.0 mm
06:45 PM 63.5°F17.5°C 53.9°F12.2°C 71% 2.0 mph W3.2 kmh W 3.8 mph6.1 kmh 29.96 in1014.6 mb 0.00 in0.0 mm 0.00 in/hr0.0 mm/hr 0.04 in1.0 mm
06:50 PM 63.5°F17.5°C 53.9°F12.2°C 71% 2.8 mph W4.5 kmh W 3.8 mph6.1 kmh 29.95 in1014.2 mb 0.00 in0.0 mm 0.00 in/hr0.0 mm/hr 0.04 in1.0 mm
06:55 PM 63.5°F17.5°C 53.9°F12.2°C 71% 2.6 mph WNW4.2 kmh WNW 3.8 mph6.1 kmh 29.95 in1014.2 mb 0.00 in0.0 mm 0.00 in/hr0.0 mm/hr 0.04 in1.0 mm
07:00 PM 63.5°F17.5°C 53.9°F12.2°C 71% 2.1 mph NW3.4 kmh NW 3.1 mph5.0 kmh 29.96 in1014.6 mb 0.00 in0.0 mm 0.00 in/hr0.0 mm/hr 0.04 in1.0 mm
07:05 PM 63.3°F17.4°C 53.8°F12.1°C 71% 2.6 mph W4.2 kmh W 4.5 mph7.2 kmh 29.96 in1014.6 mb 0.00 in0.0 mm 0.00 in/hr0.0 mm/hr 0.04 in1.0 mm
07:10 PM 63.5°F17.5°C 53.9°F12.2°C 71% 3.0 mph W4.8 kmh W 4.5 mph7.2 kmh 29.96 in1014.6 mb 0.00 in0.0 mm 0.00 in/hr0.0 mm/hr 0.04 in1.0 mm
07:15 PM 63.9°F17.7°C 54.3°F12.4°C 71% 2.9 mph W4.7 kmh W 3.8 mph6.1 kmh 29.96 in1014.6 mb 0.00 in0.0 mm 0.00 in/hr0.0 mm/hr 0.04 in1.0 mm
07:20 PM 64.0°F17.8°C 54.1°F12.3°C 70% 2.3 mph WSW3.7 kmh WSW 3.8 mph6.1 kmh 29.96 in1014.6 mb 0.00 in0.0 mm 0.00 in/hr0.0 mm/hr 0.04 in1.0 mm
07:25 PM 64.2°F17.9°C 54.2°F12.3°C 70% 2.3 mph WSW3.7 kmh WSW 3.8 mph6.1 kmh 29.96 in1014.6 mb 0.00 in0.0 mm 0.00 in/hr0.0 mm/hr 0.04 in1.0 mm
07:30 PM 64.2°F17.9°C 54.2°F12.3°C 70% 2.4 mph WSW3.9 kmh WSW 3.8 mph6.1 kmh 29.96 in1014.6 mb 0.00 in0.0 mm 0.00 in/hr0.0 mm/hr 0.04 in1.0 mm
07:35 PM 64.2°F17.9°C 54.2°F12.3°C 70% 1.9 mph WSW3.1 kmh WSW 3.1 mph5.0 kmh 29.96 in1014.6 mb 0.00 in0.0 mm 0.00 in/hr0.0 mm/hr 0.04 in1.0 mm
07:40 PM 63.9°F17.7°C 53.9°F12.2°C 70% 2.3 mph WSW3.7 kmh WSW 3.8 mph6.1 kmh 29.96 in1014.6 mb 0.00 in0.0 mm 0.00 in/hr0.0 mm/hr 0.04 in1.0 mm
07:45 PM 63.5°F17.5°C 53.6°F12.0°C 70% 2.9 mph WSW4.7 kmh WSW 3.8 mph6.1 kmh 29.97 in1014.9 mb 0.00 in0.0 mm 0.00 in/hr0.0 mm/hr 0.04 in1.0 mm
07:50 PM 63.3°F17.4°C 53.4°F11.9°C 70% 3.0 mph WSW4.8 kmh WSW 3.8 mph6.1 kmh 29.97 in1014.9 mb 0.00 in0.0 mm 0.00 in/hr0.0 mm/hr 0.04 in1.0 mm
07:55 PM 63.3°F17.4°C 53.4°F11.9°C 70% 3.3 mph W5.3 kmh W 4.5 mph7.2 kmh 29.96 in1014.6 mb 0.00 in0.0 mm 0.00 in/hr0.0 mm/hr 0.04 in1.0 mm
08:00 PM 63.0°F17.2°C 53.0°F11.7°C 70% 2.9 mph W4.7 kmh W 4.5 mph7.2 kmh 29.97 in1014.9 mb 0.00 in0.0 mm 0.00 in/hr0.0 mm/hr 0.04 in1.0 mm
08:05 PM 63.1°F17.3°C 53.2°F11.8°C 70% 2.4 mph W3.9 kmh W 3.1 mph5.0 kmh 29.97 in1014.9 mb 0.00 in0.0 mm 0.00 in/hr0.0 mm/hr 0.04 in1.0 mm
08:10 PM 63.0°F17.2°C 53.4°F11.9°C 71% 2.0 mph WSW3.2 kmh WSW 3.1 mph5.0 kmh 29.96 in1014.6 mb 0.00 in0.0 mm 0.00 in/hr0.0 mm/hr 0.04 in1.0 mm
08:15 PM 62.6°F17.0°C 53.1°F11.7°C 71% 1.5 mph S2.4 kmh S 2.2 mph3.5 kmh 29.96 in1014.6 mb 0.00 in0.0 mm 0.00 in/hr0.0 mm/hr 0.04 in1.0 mm
08:20 PM 62.1°F16.7°C 52.9°F11.6°C 72% 1.2 mph SSE1.9 kmh SSE 1.6 mph2.6 kmh 29.97 in1014.9 mb 0.00 in0.0 mm 0.00 in/hr0.0 mm/hr 0.04 in1.0 mm
08:25 PM 61.5°F16.4°C 52.8°F11.6°C 73% 0.9 mph SE1.4 kmh SE 1.6 mph2.6 kmh 29.96 in1014.6 mb 0.00 in0.0 mm 0.00 in/hr0.0 mm/hr 0.04 in1.0 mm
08:30 PM 61.2°F16.2°C 52.8°F11.6°C 74% 0.7 mph WSW1.1 kmh WSW 1.6 mph2.6 kmh 29.96 in1014.6 mb 0.00 in0.0 mm 0.00 in/hr0.0 mm/hr 0.04 in1.0 mm
08:35 PM 60.6°F15.9°C 52.3°F11.3°C 74% 0.4 mph W0.6 kmh W 1.6 mph2.6 kmh 29.96 in1014.6 mb 0.00 in0.0 mm 0.00 in/hr0.0 mm/hr 0.04 in1.0 mm
08:40 PM 60.6°F15.9°C 52.7°F11.5°C 75% 0.6 mph SSW1.0 kmh SSW 1.6 mph2.6 kmh 29.96 in1014.6 mb 0.00 in0.0 mm 0.00 in/hr0.0 mm/hr 0.04 in1.0 mm
08:45 PM 60.3°F15.7°C 52.3°F11.3°C 75% 0.7 mph S1.1 kmh S 1.6 mph2.6 kmh 29.96 in1014.6 mb 0.00 in0.0 mm 0.00 in/hr0.0 mm/hr 0.04 in1.0 mm
08:50 PM 60.1°F15.6°C 52.1°F11.2°C 75% 0.3 mph S0.5 kmh S 1.6 mph2.6 kmh 29.97 in1014.9 mb 0.00 in0.0 mm 0.00 in/hr0.0 mm/hr 0.04 in1.0 mm
08:55 PM 59.7°F15.4°C 52.2°F11.2°C 76% 0.1 mph SW0.2 kmh SW 0.7 mph1.1 kmh 29.97 in1014.9 mb 0.00 in0.0 mm 0.00 in/hr0.0 mm/hr 0.04 in1.0 mm
09:00 PM 59.5°F15.3°C 52.3°F11.3°C 77% 0.7 mph S1.1 kmh S 1.6 mph2.6 kmh 29.97 in1014.9 mb 0.00 in0.0 mm 0.00 in/hr0.0 mm/hr 0.04 in1.0 mm
09:05 PM 59.4°F15.2°C 52.2°F11.2°C 77% 1.0 mph S1.6 kmh S 1.6 mph2.6 kmh 29.97 in1014.9 mb 0.00 in0.0 mm 0.00 in/hr0.0 mm/hr 0.04 in1.0 mm
09:10 PM 59.2°F15.1°C 52.0°F11.1°C 77% 0.7 mph S1.1 kmh S 1.6 mph2.6 kmh 29.97 in1014.9 mb 0.00 in0.0 mm 0.00 in/hr0.0 mm/hr 0.04 in1.0 mm
09:15 PM 59.0°F15.0°C 51.8°F11.0°C 77% 0.5 mph S0.8 kmh S 1.6 mph2.6 kmh 29.97 in1014.9 mb 0.00 in0.0 mm 0.00 in/hr0.0 mm/hr 0.04 in1.0 mm
09:20 PM 58.6°F14.8°C 51.8°F11.0°C 78% 0.5 mph S0.8 kmh S 1.6 mph2.6 kmh 29.97 in1014.9 mb 0.00 in0.0 mm 0.00 in/hr0.0 mm/hr 0.04 in1.0 mm
09:25 PM 58.5°F14.7°C 51.6°F10.9°C 78% 0.6 mph S1.0 kmh S 1.6 mph2.6 kmh 29.97 in1014.9 mb 0.00 in0.0 mm 0.00 in/hr0.0 mm/hr 0.04 in1.0 mm
09:30 PM 58.3°F14.6°C 51.5°F10.8°C 78% 0.4 mph S0.6 kmh S 1.6 mph2.6 kmh 29.97 in1014.9 mb 0.00 in0.0 mm 0.00 in/hr0.0 mm/hr 0.04 in1.0 mm
09:35 PM 58.1°F14.5°C 51.3°F10.7°C 78% 0.1 mph SE0.2 kmh SE 0.7 mph1.1 kmh 29.97 in1014.9 mb 0.00 in0.0 mm 0.00 in/hr0.0 mm/hr 0.04 in1.0 mm
09:40 PM 57.9°F14.4°C 51.5°F10.8°C 79% Calm Calm -- 29.97 in1014.9 mb 0.00 in0.0 mm 0.00 in/hr0.0 mm/hr 0.04 in1.0 mm
09:45 PM 57.7°F14.3°C 51.3°F10.7°C 79% Calm Calm -- 29.97 in1014.9 mb 0.00 in0.0 mm 0.00 in/hr0.0 mm/hr 0.04 in1.0 mm
09:50 PM 57.4°F14.1°C 50.9°F10.5°C 79% 0.5 mph SSE0.8 kmh SSE 1.6 mph2.6 kmh 29.97 in1014.9 mb 0.00 in0.0 mm 0.00 in/hr0.0 mm/hr 0.04 in1.0 mm
09:55 PM 57.2°F14.0°C 51.1°F10.6°C 80% 0.8 mph S1.3 kmh S 1.6 mph2.6 kmh 29.96 in1014.6 mb 0.00 in0.0 mm 0.00 in/hr0.0 mm/hr 0.04 in1.0 mm
10:00 PM 57.0°F13.9°C 50.9°F10.5°C 80% 0.5 mph S0.8 kmh S 1.6 mph2.6 kmh 29.97 in1014.9 mb 0.00 in0.0 mm 0.00 in/hr0.0 mm/hr 0.04 in1.0 mm
10:05 PM 56.8°F13.8°C 50.7°F10.4°C 80% 0.7 mph S1.1 kmh S 1.6 mph2.6 kmh 29.97 in1014.9 mb 0.00 in0.0 mm 0.00 in/hr0.0 mm/hr 0.04 in1.0 mm
10:10 PM 56.7°F13.7°C 50.6°F10.3°C 80% 0.6 mph S1.0 kmh S 1.6 mph2.6 kmh 29.97 in1014.9 mb 0.00 in0.0 mm 0.00 in/hr0.0 mm/hr 0.04 in1.0 mm
10:15 PM 56.5°F13.6°C 50.4°F10.2°C 80% 0.3 mph S0.5 kmh S 0.7 mph1.1 kmh 29.97 in1014.9 mb 0.00 in0.0 mm 0.00 in/hr0.0 mm/hr 0.04 in1.0 mm
10:20 PM 56.3°F13.5°C 50.6°F10.3°C 81% 0.9 mph S1.4 kmh S 1.6 mph2.6 kmh 29.97 in1014.9 mb 0.00 in0.0 mm 0.00 in/hr0.0 mm/hr 0.04 in1.0 mm
10:25 PM 56.1°F13.4°C 50.4°F10.2°C 81% 1.3 mph SSE2.1 kmh SSE 2.2 mph3.5 kmh 29.97 in1014.9 mb 0.00 in0.0 mm 0.00 in/hr0.0 mm/hr 0.04 in1.0 mm
10:30 PM 55.9°F13.3°C 50.2°F10.1°C 81% 0.8 mph SE1.3 kmh SE 2.2 mph3.5 kmh 29.96 in1014.6 mb 0.00 in0.0 mm 0.00 in/hr0.0 mm/hr 0.04 in1.0 mm
10:35 PM 55.9°F13.3°C 50.2°F10.1°C 81% 0.7 mph SE1.1 kmh SE 1.6 mph2.6 kmh 29.97 in1014.9 mb 0.00 in0.0 mm 0.00 in/hr0.0 mm/hr 0.04 in1.0 mm
10:40 PM 55.6°F13.1°C 49.9°F9.9°C 81% 0.7 mph SE1.1 kmh SE 1.6 mph2.6 kmh 29.96 in1014.6 mb 0.00 in0.0 mm 0.00 in/hr0.0 mm/hr 0.04 in1.0 mm
10:45 PM 55.6°F13.1°C 49.9°F9.9°C 81% 0.4 mph SE0.6 kmh SE 1.6 mph2.6 kmh 29.96 in1014.6 mb 0.00 in0.0 mm 0.00 in/hr0.0 mm/hr 0.04 in1.0 mm
10:50 PM 55.6°F13.1°C 49.9°F9.9°C 81% 0.7 mph SE1.1 kmh SE 1.6 mph2.6 kmh 29.96 in1014.6 mb 0.00 in0.0 mm 0.00 in/hr0.0 mm/hr 0.04 in1.0 mm
10:55 PM 55.4°F13.0°C 49.7°F9.8°C 81% 0.7 mph SE1.1 kmh SE 1.6 mph2.6 kmh 29.97 in1014.9 mb 0.00 in0.0 mm 0.00 in/hr0.0 mm/hr 0.04 in1.0 mm
11:00 PM 55.2°F12.9°C 49.5°F9.7°C 81% 0.6 mph SE1.0 kmh SE 1.6 mph2.6 kmh 29.96 in1014.6 mb 0.00 in0.0 mm 0.00 in/hr0.0 mm/hr 0.04 in1.0 mm
11:05 PM 55.0°F12.8°C 49.3°F9.6°C 81% 0.8 mph SE1.3 kmh SE 1.6 mph2.6 kmh 29.96 in1014.6 mb 0.00 in0.0 mm 0.00 in/hr0.0 mm/hr 0.04 in1.0 mm
11:10 PM 54.5°F12.5°C 49.1°F9.5°C 82% 0.6 mph SE1.0 kmh SE 1.6 mph2.6 kmh 29.96 in1014.6 mb 0.00 in0.0 mm 0.00 in/hr0.0 mm/hr 0.04 in1.0 mm
11:15 PM 54.5°F12.5°C 49.1°F9.5°C 82% 0.5 mph SE0.8 kmh SE 1.6 mph2.6 kmh 29.96 in1014.6 mb 0.00 in0.0 mm 0.00 in/hr0.0 mm/hr 0.04 in1.0 mm
11:20 PM 54.5°F12.5°C 49.1°F9.5°C 82% 0.8 mph SE1.3 kmh SE 1.6 mph2.6 kmh 29.96 in1014.6 mb 0.00 in0.0 mm 0.00 in/hr0.0 mm/hr 0.04 in1.0 mm
11:25 PM 54.5°F12.5°C 49.1°F9.5°C 82% 0.8 mph SE1.3 kmh SE 1.6 mph2.6 kmh 29.96 in1014.6 mb 0.00 in0.0 mm 0.00 in/hr0.0 mm/hr 0.04 in1.0 mm
11:30 PM 54.3°F12.4°C 49.0°F9.4°C 82% 0.9 mph SE1.4 kmh SE 1.6 mph2.6 kmh 29.96 in1014.6 mb 0.00 in0.0 mm 0.00 in/hr0.0 mm/hr 0.04 in1.0 mm
11:35 PM 54.1°F12.3°C 48.8°F9.3°C 82% 1.1 mph SE1.8 kmh SE 1.6 mph2.6 kmh 29.96 in1014.6 mb 0.00 in0.0 mm 0.00 in/hr0.0 mm/hr 0.04 in1.0 mm
11:40 PM 54.0°F12.2°C 48.6°F9.2°C 82% 0.7 mph SE1.1 kmh SE 1.6 mph2.6 kmh 29.96 in1014.6 mb 0.00 in0.0 mm 0.00 in/hr0.0 mm/hr 0.04 in1.0 mm
11:45 PM 54.0°F12.2°C 48.6°F9.2°C 82% 0.2 mph SE0.3 kmh SE 0.7 mph1.1 kmh 29.95 in1014.2 mb 0.00 in0.0 mm 0.00 in/hr0.0 mm/hr 0.04 in1.0 mm
11:50 PM 53.6°F12.0°C 48.2°F9.0°C 82% 0.3 mph SE0.5 kmh SE 0.7 mph1.1 kmh 29.95 in1014.2 mb 0.00 in0.0 mm 0.00 in/hr0.0 mm/hr 0.04 in1.0 mm
11:55 PM 53.2°F11.8°C 48.2°F9.0°C 83% 0.4 mph E0.6 kmh E 1.6 mph2.6 kmh 29.96 in1014.6 mb 0.00 in0.0 mm 0.00 in/hr0.0 mm/hr 0.04 in1.0 mm